Time;durP1;ratioP1;P1;durP2;ratioP2;P2;SDS_P1;SDS_P2;PMS_P1;PMS_P2;Temp;Humidity;BMP_temperature;BMP_pressure;BME280_temperature;BME280_humidity;BME280_pressure;Samples;Min_cycle;Max_cycle;Signal;HPM_P1;HPM_P2
2021/03/14 00:00:40;;;;;;;5.20;1.52;;;4.80;99.90;;;;;;10328697;28;20499;-70
2021/03/14 00:05:44;;;;;;;5.43;1.40;;;4.90;99.90;;;;;;10328659;28;20110;-69
2021/03/14 00:10:56;;;;;;;3.63;1.35;;;5.00;99.90;;;;;;10328609;28;20082;-70
2021/03/14 00:15:59;;;;;;;4.25;1.40;;;4.70;99.90;;;;;;10327763;28;20076;-70
2021/03/14 00:21:01;;;;;;;3.05;1.30;;;4.40;99.90;;;;;;10328314;28;20112;-70
2021/03/14 00:26:04;;;;;;;2.78;1.23;;;4.20;99.90;;;;;;10327685;28;20098;-70
2021/03/14 00:31:06;;;;;;;3.70;1.20;;;4.00;99.90;;;;;;10327427;28;20571;-70
2021/03/14 00:36:07;;;;;;;3.28;1.20;;;3.90;99.90;;;;;;10327207;28;20566;-70
2021/03/14 00:41:09;;;;;;;6.50;1.48;;;3.90;99.90;;;;;;10326996;28;20462;-69
2021/03/14 00:46:11;;;;;;;4.40;1.50;;;4.00;99.90;;;;;;10326536;28;20097;-70
2021/03/14 00:51:13;;;;;;;5.65;2.05;;;3.80;99.90;;;;;;10327071;28;20042;-70
2021/03/14 00:56:14;;;;;;;5.25;1.77;;;3.70;99.90;;;;;;10325091;28;20090;-70
2021/03/14 01:01:16;;;;;;;3.40;1.30;;;3.60;99.90;;;;;;10325970;28;20042;-70
2021/03/14 01:06:18;;;;;;;2.90;1.50;;;3.70;99.90;;;;;;10326532;28;20510;-70
2021/03/14 01:11:19;;;;;;;2.75;1.30;;;3.90;99.90;;;;;;10325061;28;20557;-70
2021/03/14 01:16:21;;;;;;;2.58;1.40;;;3.80;99.90;;;;;;10324795;28;20115;-70
2021/03/14 01:21:26;;;;;;;2.83;1.42;;;3.80;99.90;;;;;;10324976;28;20133;-70
2021/03/14 01:26:27;;;;;;;5.20;1.90;;;3.90;99.90;;;;;;10324091;28;20058;-70
2021/03/14 01:31:28;;;;;;;5.15;1.95;;;4.00;99.90;;;;;;10324067;28;20042;-70
2021/03/14 01:36:30;;;;;;;4.63;1.98;;;4.00;99.90;;;;;;10325312;28;20356;-70
2021/03/14 01:41:32;;;;;;;5.97;2.20;;;4.10;99.90;;;;;;10324606;28;20085;-70
2021/03/14 01:46:33;;;;;;;6.60;2.75;;;4.00;99.90;;;;;;10323434;28;20537;-69
2021/03/14 01:51:48;;;;;;;5.15;2.47;;;3.90;99.90;;;;;;10324661;28;20050;-70
2021/03/14 01:56:50;;;;;;;4.57;2.22;;;3.60;99.90;;;;;;10332497;28;20082;-70
2021/03/14 02:01:52;;;;;;;4.25;2.42;;;3.50;99.90;;;;;;10323718;28;20054;-69
2021/03/14 02:06:53;;;;;;;3.67;2.33;;;3.30;99.90;;;;;;10323643;28;20047;-70
2021/03/14 02:11:59;;;;;;;6.07;2.47;;;3.20;99.90;;;;;;10322424;28;20050;-70
2021/03/14 02:17:01;;;;;;;4.65;2.60;;;3.20;99.90;;;;;;10295332;28;20443;-70
2021/03/14 02:22:11;;;;;;;5.38;2.65;;;3.10;99.90;;;;;;10322227;28;20054;-70
2021/03/14 02:27:13;;;;;;;6.53;3.15;;;3.10;99.90;;;;;;10322910;28;20097;-70
2021/03/14 02:32:17;;;;;;;4.93;2.50;;;3.10;99.90;;;;;;10321121;28;20129;-69
2021/03/14 02:37:21;;;;;;;5.70;2.38;;;3.20;99.90;;;;;;10323632;28;20062;-70
2021/03/14 02:42:27;;;;;;;6.57;2.67;;;3.20;99.90;;;;;;10321262;28;20089;-69
2021/03/14 02:47:29;;;;;;;5.25;2.33;;;3.20;99.90;;;;;;10323120;28;20134;-70
2021/03/14 02:52:39;;;;;;;7.18;2.60;;;3.20;99.90;;;;;;10321554;28;20413;-70
2021/03/14 02:57:41;;;;;;;7.60;2.35;;;3.30;99.90;;;;;;10323216;28;20090;-70
2021/03/14 03:02:49;;;;;;;5.53;2.30;;;3.40;99.90;;;;;;10325331;28;20110;-69
2021/03/14 03:07:54;;;;;;;6.88;2.55;;;3.40;99.90;;;;;;10327932;28;20513;-70
2021/03/14 03:12:59;;;;;;;5.35;2.28;;;3.50;99.90;;;;;;10350355;28;20120;-70
2021/03/14 03:18:01;;;;;;;7.72;2.50;;;3.50;99.90;;;;;;10326206;28;20058;-70
2021/03/14 03:23:03;;;;;;;4.95;2.05;;;3.50;99.90;;;;;;10328074;28;20565;-70
2021/03/14 03:28:04;;;;;;;5.22;2.03;;;3.60;99.90;;;;;;10334225;28;20054;-70
2021/03/14 03:33:06;;;;;;;4.72;2.00;;;3.50;99.90;;;;;;10334947;28;20050;-70
2021/03/14 03:38:08;;;;;;;6.63;2.40;;;3.40;99.90;;;;;;10335344;28;20074;-69
2021/03/14 03:43:19;;;;;;;5.93;2.10;;;3.40;99.90;;;;;;10334325;28;20043;-69
2021/03/14 03:48:23;;;;;;;;;;;3.40;99.90;;;;;;10335030;28;20042;-70
2021/03/14 03:53:25;;;;;;;3.85;1.90;;;3.40;99.90;;;;;;10334189;28;20453;-70
2021/03/14 03:58:29;;;;;;;6.15;2.10;;;3.40;99.90;;;;;;10333318;28;20081;-70
2021/03/14 04:03:37;;;;;;;4.82;1.83;;;3.50;99.90;;;;;;10331120;28;20098;-70
2021/03/14 04:08:40;;;;;;;4.70;1.90;;;3.40;99.90;;;;;;10329798;28;20054;-70
2021/03/14 04:13:44;;;;;;;4.90;2.05;;;3.30;99.90;;;;;;10325096;28;20082;-70
2021/03/14 04:18:47;;;;;;;4.25;1.98;;;3.40;99.90;;;;;;10327204;28;20551;-69
2021/03/14 04:23:52;;;;;;;5.40;2.45;;;3.50;99.90;;;;;;10326017;28;20525;-69
2021/03/14 04:28:55;;;;;;;4.25;2.42;;;3.50;99.90;;;;;;10326344;28;20104;-69
2021/03/14 04:33:58;;;;;;;5.45;2.30;;;3.60;99.90;;;;;;10325528;28;20054;-70
2021/03/14 04:39:00;;;;;;;3.50;2.13;;;3.60;99.90;;;;;;10325987;28;20058;-70
2021/03/14 04:44:03;;;;;;;4.78;2.10;;;3.60;99.90;;;;;;10323439;28;20081;-70
2021/03/14 04:49:05;;;;;;;5.10;1.98;;;3.60;99.90;;;;;;10325538;28;20458;-70
2021/03/14 04:54:10;;;;;;;7.15;2.08;;;3.50;99.90;;;;;;10324997;28;20646;-70
2021/03/14 04:59:13;;;;;;;3.85;2.00;;;3.40;99.90;;;;;;10324037;28;20050;-70
2021/03/14 05:04:19;;;;;;;5.28;2.63;;;3.30;99.90;;;;;;10324035;28;20105;-70
2021/03/14 05:09:20;;;;;;;4.88;2.63;;;3.30;99.90;;;;;;10325343;28;20043;-70
2021/03/14 05:14:23;;;;;;;6.97;2.70;;;3.20;99.90;;;;;;10322813;28;20050;-69
2021/03/14 05:19:24;;;;;;;6.38;3.10;;;3.20;99.90;;;;;;10324760;28;20142;-69
2021/03/14 05:24:34;;;;;;;4.60;3.03;;;3.10;99.90;;;;;;10307955;28;20054;-70
2021/03/14 05:29:36;;;;;;;5.82;3.25;;;3.10;99.90;;;;;;10324650;28;20054;-70
2021/03/14 05:34:41;;;;;;;5.45;3.47;;;3.30;99.90;;;;;;10324745;28;20046;-70
2021/03/14 05:39:42;;;;;;;5.93;3.55;;;3.30;99.90;;;;;;10323020;28;20490;-70
2021/03/14 05:44:47;;;;;;;6.47;3.90;;;3.40;99.90;;;;;;10323523;28;20150;-69
2021/03/14 05:49:48;;;;;;;6.35;3.40;;;3.40;99.90;;;;;;10323452;28;20054;-70
2021/03/14 05:54:52;;;;;;;7.10;3.80;;;3.50;99.90;;;;;;10322713;28;20054;-69
2021/03/14 05:59:56;;;;;;;8.32;4.03;;;3.50;99.90;;;;;;10323896;28;20058;-70
2021/03/14 06:04:58;;;;;;;6.72;3.65;;;3.60;99.90;;;;;;10324126;28;20137;-70
2021/03/14 06:10:00;;;;;;;8.95;3.92;;;3.50;99.90;;;;;;10324179;28;20562;-69
2021/03/14 06:15:02;;;;;;;10.07;4.50;;;3.50;99.90;;;;;;10323370;28;20069;-70
2021/03/14 06:20:06;;;;;;;10.15;4.00;;;3.40;99.90;;;;;;10323655;28;20042;-70
2021/03/14 06:25:26;;;;;;;8.63;3.78;;;3.40;99.90;;;;;;10297390;28;20059;-70
2021/03/14 06:30:29;;;;;;;9.25;3.80;;;3.30;99.90;;;;;;10321361;28;20090;-69
2021/03/14 06:35:52;;;;;;;9.38;3.30;;;3.30;99.90;;;;;;10322486;28;20109;-70
2021/03/14 06:41:20;;;;;;;6.90;3.42;;;3.40;99.90;;;;;;10322885;28;20454;-69
2021/03/14 06:46:29;;;;;;;8.10;3.40;;;3.60;99.90;;;;;;10322575;28;20077;-69
2021/03/14 06:51:46;;;;;;;8.80;3.67;;;3.60;99.90;;;;;;10322715;28;20046;-70
2021/03/14 06:57:02;;;;;;;8.93;2.95;;;3.60;99.90;;;;;;10324598;28;20473;-70
2021/03/14 07:02:06;;;;;;;8.98;3.10;;;3.70;99.90;;;;;;10330421;28;20050;-70
2021/03/14 07:07:16;;;;;;;7.88;2.75;;;3.70;99.90;;;;;;10329536;28;20046;-70
2021/03/14 07:12:21;;;;;;;9.18;2.90;;;3.80;99.90;;;;;;10329463;28;20573;-70
2021/03/14 07:17:51;;;;;;;7.57;2.60;;;4.00;99.90;;;;;;10330028;28;20050;-70
2021/03/14 07:23:03;;;;;;;8.10;2.30;;;4.20;99.90;;;;;;10330247;28;20478;-69
2021/03/14 07:28:06;;;;;;;8.95;2.38;;;4.20;99.90;;;;;;10330387;28;20085;-70
2021/03/14 07:33:08;;;;;;;9.07;2.40;;;4.60;99.90;;;;;;10329549;28;20391;-70
2021/03/14 07:38:11;;;;;;;8.07;2.03;;;5.00;99.90;;;;;;10329572;28;20462;-70
2021/03/14 07:43:13;;;;;;;7.47;2.10;;;4.90;99.90;;;;;;10328172;28;20130;-69
2021/03/14 07:48:15;;;;;;;9.02;2.65;;;5.00;99.90;;;;;;10329643;28;20141;-69
2021/03/14 07:53:17;;;;;;;9.60;2.28;;;5.00;99.90;;;;;;10360021;28;20249;-69
2021/03/14 07:58:23;;;;;;;6.68;2.28;;;5.20;99.90;;;;;;10328167;28;20577;-70
2021/03/14 08:03:52;;;;;;;8.75;2.15;;;5.60;99.90;;;;;;10327880;28;20403;-70
2021/03/14 08:08:53;;;;;;;8.25;2.40;;;5.70;99.90;;;;;;10327746;28;20137;-70
2021/03/14 08:13:55;;;;;;;9.60;2.30;;;5.90;99.90;;;;;;10327700;28;20133;-70
2021/03/14 08:19:09;;;;;;;8.48;2.25;;;6.30;99.90;;;;;;10319075;28;20125;-70
2021/03/14 08:24:12;;;;;;;7.47;2.00;;;6.40;99.90;;;;;;10325345;28;20481;-70
2021/03/14 08:29:15;;;;;;;7.85;2.30;;;6.40;99.90;;;;;;10325781;28;20042;-70
2021/03/14 08:34:18;;;;;;;11.02;2.15;;;6.60;99.90;;;;;;10323705;28;20133;-70
2021/03/14 08:39:24;;;;;;;9.18;2.28;;;7.00;99.90;;;;;;10295594;28;20074;-70
2021/03/14 08:44:33;;;;;;;9.25;2.00;;;7.10;99.90;;;;;;10325244;28;20138;-66
2021/03/14 08:49:37;;;;;;;7.78;2.00;;;7.30;99.90;;;;;;10324842;28;20060;-66
2021/03/14 08:54:42;;;;;;;6.63;2.05;;;7.70;99.90;;;;;;10323868;28;20050;-66
2021/03/14 08:59:54;;;;;;;8.15;2.17;;;8.00;99.90;;;;;;10323448;28;20193;-66
2021/03/14 09:05:12;;;;;;;6.93;2.13;;;8.20;99.90;;;;;;10324178;28;20399;-66
2021/03/14 09:10:18;;;;;;;10.57;2.25;;;8.00;99.90;;;;;;10318233;28;20089;-66
2021/03/14 09:15:19;;;;;;;9.07;2.22;;;8.30;99.90;;;;;;10322893;28;20049;-66
2021/03/14 09:20:21;;;;;;;9.05;2.08;;;8.00;99.90;;;;;;10304734;28;20133;-66
2021/03/14 09:25:22;;;;;;;9.05;2.28;;;7.60;99.90;;;;;;10321177;28;20069;-66
2021/03/14 09:30:24;;;;;;;7.88;2.25;;;7.90;99.90;;;;;;10321493;28;20136;-66
2021/03/14 09:35:36;;;;;;;10.27;2.08;;;8.00;99.90;;;;;;10321040;28;20546;-66
2021/03/14 09:40:48;;;;;;;7.05;2.05;;;8.40;99.90;;;;;;10321088;28;20105;-67
2021/03/14 09:45:59;;;;;;;8.13;2.03;;;8.60;99.90;;;;;;10322799;28;20112;-66
2021/03/14 09:51:06;;;;;;;10.17;2.20;;;8.70;99.90;;;;;;10320152;28;20050;-66
2021/03/14 09:56:10;;;;;;;6.47;2.03;;;8.20;99.90;;;;;;10322273;28;20085;-66
2021/03/14 10:01:11;;;;;;;6.85;2.13;;;8.30;99.90;;;;;;10321572;28;21078;-66
2021/03/14 10:06:13;;;;;;;8.80;2.30;;;8.60;99.90;;;;;;10322595;28;20125;-67
2021/03/14 10:11:17;;;;;;;9.77;3.15;;;8.70;99.90;;;;;;10322962;28;20494;-66
2021/03/14 10:16:19;;;;;;;8.77;2.40;;;8.30;99.90;;;;;;10322859;28;20061;-66
2021/03/14 10:21:23;;;;;;;7.18;2.00;;;8.30;99.90;;;;;;10322476;28;20046;-66
2021/03/14 10:26:24;;;;;;;6.72;1.90;;;8.40;99.90;;;;;;10322939;28;20094;-66
2021/03/14 10:31:32;;;;;;;8.77;2.30;;;7.90;99.90;;;;;;10322546;28;20078;-66
2021/03/14 10:36:35;;;;;;;6.95;2.22;;;7.60;99.90;;;;;;10323326;28;20050;-67
2021/03/14 10:41:45;;;;;;;7.65;2.17;;;7.10;99.90;;;;;;10322998;28;20104;-66
2021/03/14 10:46:52;;;;;;;8.33;3.23;;;7.00;99.90;;;;;;10321824;28;20141;-67
2021/03/14 10:51:59;;;;;;;6.25;1.92;;;7.10;99.90;;;;;;10321322;28;20502;-66
2021/03/14 10:57:01;;;;;;;4.75;1.88;;;7.10;99.90;;;;;;10323626;28;20253;-66
2021/03/14 11:02:15;;;;;;;6.95;2.08;;;7.20;99.90;;;;;;10323108;28;20077;-66
2021/03/14 11:07:26;;;;;;;8.05;1.90;;;7.70;99.90;;;;;;10323285;28;20052;-66
2021/03/14 11:12:35;;;;;;;8.98;2.20;;;8.00;99.90;;;;;;10321696;28;20061;-66
2021/03/14 11:17:52;;;;;;;7.90;2.20;;;8.50;99.90;;;;;;10322829;28;20141;-67
2021/03/14 11:22:56;;;;;;;6.75;1.98;;;8.50;99.90;;;;;;10321312;28;20168;-67
2021/03/14 11:27:58;;;;;;;6.63;1.80;;;8.20;99.90;;;;;;10321311;28;20507;-67
2021/03/14 11:33:00;;;;;;;6.60;2.08;;;8.30;99.90;;;;;;10322635;28;20070;-67
2021/03/14 11:38:02;;;;;;;3.92;1.70;;;8.60;99.90;;;;;;10321105;28;20050;-67
2021/03/14 11:43:06;;;;;;;5.50;1.63;;;8.80;99.90;;;;;;10322092;28;20062;-66
2021/03/14 11:48:08;;;;;;;4.85;1.40;;;9.20;99.90;;;;;;10327528;28;20061;-66
2021/03/14 11:53:09;;;;;;;2.92;1.40;;;9.60;99.90;;;;;;10328153;28;20136;-66
2021/03/14 11:58:11;;;;;;;2.65;1.30;;;9.90;99.90;;;;;;10328770;28;20082;-66
2021/03/14 12:03:13;;;;;;;3.10;1.30;;;9.60;98.40;;;;;;10329034;28;20082;-67
2021/03/14 12:08:15;;;;;;;1.95;1.20;;;9.40;99.90;;;;;;10327912;28;20054;-67
2021/03/14 12:13:18;;;;;;;2.50;1.50;;;9.30;99.90;;;;;;10328318;28;20197;-67
2021/03/14 12:18:28;;;;;;;1.90;1.10;;;9.70;99.60;;;;;;10328283;28;20136;-67
2021/03/14 12:23:30;;;;;;;1.90;1.10;;;9.70;98.30;;;;;;10360037;28;20109;-67
2021/03/14 12:28:32;;;;;;;1.90;1.30;;;9.80;98.30;;;;;;10327388;28;20129;-67
2021/03/14 12:33:33;;;;;;;1.55;1.20;;;10.20;96.70;;;;;;10327322;28;20495;-66
2021/03/14 12:38:35;;;;;;;2.15;1.30;;;10.90;95.30;;;;;;10327214;28;20423;-67
2021/03/14 12:43:37;;;;;;;1.80;1.23;;;10.70;94.00;;;;;;10326085;28;20407;-67
2021/03/14 12:48:38;;;;;;;2.33;1.40;;;10.80;94.90;;;;;;10325928;28;20049;-67
2021/03/14 12:53:41;;;;;;;1.88;1.20;;;10.00;98.30;;;;;;10327521;28;20054;-66
2021/03/14 12:58:42;;;;;;;2.13;1.30;;;9.30;99.90;;;;;;10325456;28;20046;-67
2021/03/14 13:03:44;;;;;;;2.38;1.20;;;9.20;99.90;;;;;;10325244;28;20134;-67
2021/03/14 13:08:46;;;;;;;2.45;1.27;;;9.30;99.90;;;;;;10322728;28;20637;-67
2021/03/14 13:13:47;;;;;;;2.75;1.20;;;8.90;99.90;;;;;;10325764;28;20081;-67
2021/03/14 13:18:49;;;;;;;1.17;1.08;;;8.80;99.90;;;;;;10324898;28;20054;-66
2021/03/14 13:23:53;;;;;;;2.25;1.20;;;8.50;99.90;;;;;;10325321;28;20112;-66
2021/03/14 13:28:55;;;;;;;2.67;1.20;;;8.20;99.90;;;;;;10325782;28;20093;-66
2021/03/14 13:33:56;;;;;;;1.65;1.20;;;8.40;99.90;;;;;;10324766;28;20467;-67
2021/03/14 13:38:58;;;;;;;1.73;1.23;;;8.30;99.90;;;;;;10324549;28;20056;-67
2021/03/14 13:43:59;;;;;;;2.05;1.40;;;8.40;99.90;;;;;;10324900;28;20050;-67
2021/03/14 13:49:03;;;;;;;1.45;1.20;;;8.30;99.90;;;;;;10324764;28;20092;-67
2021/03/14 13:54:04;;;;;;;1.98;1.30;;;8.60;99.90;;;;;;10324736;28;20124;-66
2021/03/14 13:59:06;;;;;;;2.55;1.65;;;8.40;99.90;;;;;;10324097;28;20133;-66
2021/03/14 14:04:08;;;;;;;2.53;1.60;;;8.20;99.90;;;;;;10324167;28;20050;-67
2021/03/14 14:09:10;;;;;;;2.22;1.60;;;8.10;99.90;;;;;;10324165;28;20054;-67
2021/03/14 14:14:11;;;;;;;3.80;2.20;;;8.70;99.90;;;;;;10323769;28;20081;-67
2021/03/14 14:19:13;;;;;;;3.60;2.00;;;8.80;99.90;;;;;;10323369;28;20121;-67
2021/03/14 14:24:14;;;;;;;3.35;2.40;;;8.60;99.90;;;;;;10323356;28;20086;-67
2021/03/14 14:29:16;;;;;;;3.67;2.20;;;8.60;99.90;;;;;;10322132;28;20052;-67
2021/03/14 14:34:19;;;;;;;4.15;2.72;;;9.30;99.90;;;;;;10322271;28;20046;-66
2021/03/14 14:39:20;;;;;;;4.38;2.63;;;9.40;99.90;;;;;;10323130;28;20129;-66
2021/03/14 14:44:24;;;;;;;4.60;2.70;;;9.30;99.90;;;;;;10321665;28;20482;-67
2021/03/14 14:49:26;;;;;;;4.38;2.50;;;8.90;99.90;;;;;;10323204;28;20074;-67
2021/03/14 14:54:28;;;;;;;4.63;2.58;;;9.10;99.90;;;;;;10323796;28;20129;-67
2021/03/14 14:59:29;;;;;;;4.30;2.42;;;9.50;99.90;;;;;;10322116;28;20069;-67
2021/03/14 15:04:31;;;;;;;4.68;2.60;;;9.00;99.90;;;;;;10320734;28;20101;-67
2021/03/14 15:09:32;;;;;;;5.78;3.00;;;8.90;99.90;;;;;;10322402;28;20054;-67
2021/03/14 15:14:36;;;;;;;4.53;2.90;;;8.90;99.90;;;;;;10322029;28;20050;-66
2021/03/14 15:19:37;;;;;;;4.57;2.75;;;8.80;99.90;;;;;;10327521;28;20137;-67
2021/03/14 15:24:39;;;;;;;5.07;3.00;;;8.50;99.90;;;;;;10330858;28;20054;-67
2021/03/14 15:29:40;;;;;;;4.47;2.83;;;8.50;99.90;;;;;;10329345;28;20078;-67
2021/03/14 15:34:43;;;;;;;4.70;2.45;;;8.50;99.90;;;;;;10330512;28;20054;-67
2021/03/14 15:39:44;;;;;;;4.60;2.70;;;8.60;99.90;;;;;;10330620;28;20125;-67
2021/03/14 15:44:46;;;;;;;4.75;2.63;;;8.70;99.90;;;;;;10328993;28;20129;-66
2021/03/14 15:49:47;;;;;;;3.97;2.55;;;8.60;99.90;;;;;;10328189;28;20078;-66
2021/03/14 15:54:48;;;;;;;4.13;2.38;;;8.60;99.90;;;;;;10330026;28;20061;-67
2021/03/14 15:59:50;;;;;;;5.28;2.67;;;8.40;99.90;;;;;;10328224;28;20061;-66
2021/03/14 16:04:51;;;;;;;3.60;2.30;;;8.80;99.90;;;;;;10328808;28;20123;-66
2021/03/14 16:09:54;;;;;;;3.72;2.03;;;9.00;99.90;;;;;;10328984;28;20490;-66
2021/03/14 16:14:55;;;;;;;5.85;2.25;;;9.20;99.90;;;;;;10327749;28;20050;-67
2021/03/14 16:19:57;;;;;;;5.50;2.08;;;8.90;99.90;;;;;;10328401;28;20476;-67
2021/03/14 16:24:59;;;;;;;4.15;2.25;;;8.40;99.90;;;;;;10326512;28;20096;-67
2021/03/14 16:30:01;;;;;;;4.80;2.40;;;8.10;99.90;;;;;;10325741;28;20498;-67
2021/03/14 16:35:03;;;;;;;5.22;2.30;;;8.10;99.90;;;;;;10328674;28;20085;-66
2021/03/14 16:40:06;;;;;;;6.93;2.65;;;8.00;99.90;;;;;;10328023;28;20081;-66
2021/03/14 16:45:08;;;;;;;4.72;2.17;;;7.90;99.90;;;;;;10327593;28;20042;-66
2021/03/14 16:50:11;;;;;;;6.70;2.67;;;7.90;99.90;;;;;;10326933;28;20157;-66
2021/03/14 16:55:16;;;;;;;4.53;2.25;;;7.50;99.90;;;;;;10326065;28;20119;-67
2021/03/14 17:00:19;;;;;;;7.75;3.00;;;7.20;99.90;;;;;;10326740;28;20053;-66
2021/03/14 17:05:21;;;;;;;7.53;2.60;;;7.00;99.90;;;;;;10327035;28;20056;-66
2021/03/14 17:10:22;;;;;;;6.80;3.30;;;6.70;99.90;;;;;;10326275;28;20133;-66
2021/03/14 17:15:24;;;;;;;7.05;3.03;;;6.50;99.90;;;;;;10325734;28;20563;-66
2021/03/14 17:20:26;;;;;;;7.13;2.30;;;6.50;99.90;;;;;;10326516;28;20101;-66
2021/03/14 17:25:37;;;;;;;6.82;2.50;;;6.40;99.90;;;;;;10325690;28;20498;-66
2021/03/14 17:30:40;;;;;;;6.80;2.40;;;6.40;99.90;;;;;;10325746;28;20173;-66
2021/03/14 17:35:41;;;;;;;5.93;2.63;;;6.40;99.90;;;;;;10324596;28;20133;-66
2021/03/14 17:40:43;;;;;;;18.50;7.55;;;6.40;99.90;;;;;;10325093;28;20085;-66
2021/03/14 17:45:44;;;;;;;14.15;7.03;;;6.30;99.90;;;;;;10324892;28;20134;-66
2021/03/14 17:50:46;;;;;;;14.65;3.88;;;6.20;99.90;;;;;;10324882;28;20671;-67
2021/03/14 17:55:49;;;;;;;9.27;2.40;;;6.00;99.90;;;;;;10325155;28;20100;-66
2021/03/14 18:00:51;;;;;;;9.68;3.17;;;5.90;99.90;;;;;;10324294;28;20129;-65
2021/03/14 18:05:52;;;;;;;7.50;2.88;;;5.70;99.90;;;;;;10324063;28;20058;-66
2021/03/14 18:10:53;;;;;;;6.82;2.88;;;5.60;99.90;;;;;;10324307;28;20134;-66
2021/03/14 18:15:55;;;;;;;5.32;2.88;;;5.50;99.90;;;;;;10324188;28;20073;-66
2021/03/14 18:20:56;;;;;;;7.03;3.35;;;5.30;99.90;;;;;;10323724;28;20084;-66
2021/03/14 18:25:58;;;;;;;8.15;3.70;;;5.30;99.90;;;;;;10324165;28;20583;-66
2021/03/14 18:30:59;;;;;;;8.35;3.60;;;5.10;99.90;;;;;;10323445;28;20157;-66
2021/03/14 18:36:01;;;;;;;7.53;3.40;;;5.10;99.90;;;;;;10322748;28;20138;-66
2021/03/14 18:41:04;;;;;;;8.15;3.80;;;5.00;99.90;;;;;;10323395;28;20140;-66
2021/03/14 18:46:05;;;;;;;7.75;3.60;;;4.90;99.90;;;;;;10323080;28;20413;-66
2021/03/14 18:51:07;;;;;;;8.18;3.78;;;4.90;99.90;;;;;;10323353;28;20054;-65
2021/03/14 18:56:08;;;;;;;7.30;3.80;;;4.80;99.90;;;;;;10330174;28;20050;-66
2021/03/14 19:01:10;;;;;;;9.88;4.15;;;4.80;99.90;;;;;;10331104;28;20451;-66
2021/03/14 19:06:11;;;;;;;19.27;8.38;;;4.80;99.90;;;;;;10331151;28;20446;-66
2021/03/14 19:11:13;;;;;;;11.00;3.72;;;4.80;99.90;;;;;;10331317;28;20153;-67
2021/03/14 19:16:15;;;;;;;14.32;4.22;;;4.80;99.90;;;;;;10330019;28;20439;-66
2021/03/14 19:21:17;;;;;;;9.65;3.58;;;4.80;99.90;;;;;;10331460;28;20047;-66
2021/03/14 19:26:18;;;;;;;9.90;3.85;;;4.80;99.90;;;;;;10328891;28;21032;-66
2021/03/14 19:31:20;;;;;;;6.53;4.07;;;4.80;99.90;;;;;;10328041;28;20112;-66
2021/03/14 19:36:21;;;;;;;8.90;4.22;;;4.70;99.90;;;;;;10327832;28;20050;-66
2021/03/14 19:41:22;;;;;;;7.88;3.75;;;4.70;99.90;;;;;;10327200;28;20587;-66
2021/03/14 19:46:24;;;;;;;7.85;3.80;;;4.80;99.90;;;;;;10327304;28;20121;-66
2021/03/14 19:51:26;;;;;;;6.88;4.05;;;5.00;99.90;;;;;;10325292;28;20046;-66
2021/03/14 19:56:27;;;;;;;8.35;4.07;;;5.10;99.90;;;;;;10327724;28;20086;-66
2021/03/14 20:01:29;;;;;;;8.18;3.70;;;5.10;99.90;;;;;;10327556;28;20056;-66
2021/03/14 20:06:31;;;;;;;10.60;3.60;;;5.00;99.90;;;;;;10328101;28;20046;-66
2021/03/14 20:11:32;;;;;;;8.63;3.28;;;4.90;99.90;;;;;;10328944;28;20137;-66
2021/03/14 20:16:34;;;;;;;8.25;3.58;;;4.90;99.90;;;;;;10326226;28;20085;-66
2021/03/14 20:21:36;;;;;;;11.70;3.40;;;5.00;99.90;;;;;;10328384;28;20110;-66
2021/03/14 20:26:38;;;;;;;8.43;3.30;;;5.00;99.90;;;;;;10328663;28;20089;-65
2021/03/14 20:31:39;;;;;;;8.27;3.50;;;5.00;99.90;;;;;;10327815;28;20551;-66
2021/03/14 20:36:41;;;;;;;8.50;3.30;;;5.00;99.90;;;;;;10328084;28;20061;-66
2021/03/14 20:41:43;;;;;;;10.13;2.95;;;5.00;99.90;;;;;;10328328;28;20081;-66
2021/03/14 20:46:44;;;;;;;8.13;3.22;;;4.90;99.90;;;;;;10326604;28;20486;-66
2021/03/14 20:51:46;;;;;;;7.85;3.22;;;4.90;99.90;;;;;;10327649;28;20055;-65
2021/03/14 20:56:47;;;;;;;9.15;3.45;;;4.90;99.90;;;;;;10327805;28;20129;-66
2021/03/14 21:01:49;;;;;;;8.50;3.35;;;5.00;99.90;;;;;;10326899;28;20054;-66
2021/03/14 21:06:52;;;;;;;7.97;3.35;;;5.00;99.90;;;;;;10327496;28;20050;-65
2021/03/14 21:11:53;;;;;;;10.50;3.13;;;4.80;99.90;;;;;;10327173;28;20149;-65
2021/03/14 21:16:55;;;;;;;8.45;3.22;;;4.70;99.90;;;;;;10325629;28;20054;-66
2021/03/14 21:21:57;;;;;;;7.85;3.08;;;4.60;99.90;;;;;;10327024;28;20046;-65
2021/03/14 21:26:58;;;;;;;7.97;2.95;;;4.60;99.90;;;;;;10326083;28;20063;-65
2021/03/14 21:32:01;;;;;;;10.70;3.28;;;4.60;99.90;;;;;;10325648;28;20133;-65
2021/03/14 21:37:02;;;;;;;9.63;3.08;;;4.50;99.90;;;;;;10326097;28;20050;-65
2021/03/14 21:42:04;;;;;;;10.07;3.05;;;4.60;99.90;;;;;;10325247;28;20082;-65
2021/03/14 21:47:05;;;;;;;8.52;2.92;;;4.60;99.90;;;;;;10324772;28;20084;-65
2021/03/14 21:52:07;;;;;;;10.40;3.20;;;4.70;99.90;;;;;;10325679;28;20968;-65
2021/03/14 21:57:08;;;;;;;11.80;3.22;;;4.70;99.90;;;;;;10325065;28;20578;-65
2021/03/14 22:02:10;;;;;;;10.68;3.60;;;4.80;99.90;;;;;;10324306;28;20459;-65
2021/03/14 22:07:13;;;;;;;10.10;3.17;;;4.80;99.90;;;;;;10325372;28;20066;-65
2021/03/14 22:12:15;;;;;;;6.70;3.58;;;4.80;99.90;;;;;;10324091;28;20145;-65
2021/03/14 22:17:16;;;;;;;10.38;3.95;;;5.00;99.90;;;;;;10322487;28;20126;-65
2021/03/14 22:22:18;;;;;;;9.57;4.30;;;5.00;99.90;;;;;;10322932;28;20510;-71
2021/03/14 22:27:20;;;;;;;13.25;4.30;;;5.10;99.90;;;;;;10322649;28;20517;-72
2021/03/14 22:32:21;;;;;;;11.65;3.80;;;4.90;99.90;;;;;;10321724;28;20138;-71
2021/03/14 22:37:24;;;;;;;9.15;3.83;;;4.70;99.90;;;;;;10319059;28;20057;-71
2021/03/14 22:42:25;;;;;;;17.35;4.15;;;4.60;99.90;;;;;;10322881;28;20082;-71
2021/03/14 22:47:27;;;;;;;9.05;3.67;;;4.60;99.90;;;;;;10322727;28;20085;-72
2021/03/14 22:52:28;;;;;;;9.63;3.80;;;4.70;99.90;;;;;;10323382;28;20101;-71
2021/03/14 22:57:30;;;;;;;9.23;3.50;;;4.70;99.90;;;;;;10320261;28;20054;-72
2021/03/14 23:02:52;;;;;;;10.23;3.90;;;4.60;99.90;;;;;;10322358;28;20050;-71
2021/03/14 23:07:53;;;;;;;10.30;4.10;;;4.70;99.90;;;;;;10322532;28;20054;-71
2021/03/14 23:12:55;;;;;;;10.88;3.35;;;4.80;99.90;;;;;;10320795;28;20050;-71
2021/03/14 23:17:57;;;;;;;7.93;3.53;;;5.10;99.90;;;;;;10323246;28;20069;-72
2021/03/14 23:23:00;;;;;;;10.75;3.88;;;5.30;99.90;;;;;;10322982;28;20054;-71
2021/03/14 23:28:09;;;;;;;9.88;3.70;;;5.30;99.90;;;;;;10321293;28;20074;-71
2021/03/14 23:33:19;;;;;;;10.93;4.45;;;5.10;99.90;;;;;;10321770;28;20078;-71
2021/03/14 23:38:21;;;;;;;10.30;5.13;;;5.10;99.90;;;;;;10322105;28;20506;-71
2021/03/14 23:43:26;;;;;;;11.43;4.90;;;5.10;99.90;;;;;;10328387;28;20125;-72
2021/03/14 23:48:29;;;;;;;14.90;5.63;;;5.20;99.90;;;;;;10329157;28;20082;-71
2021/03/14 23:53:32;;;;;;;14.00;5.82;;;4.90;99.90;;;;;;10328990;28;20439;-71
2021/03/14 23:58:34;;;;;;;13.23;5.30;;;4.70;99.90;;;;;;10327587;28;20049;-71
